createdAt,value
2024-03-11T00:00:50.173Z,84.88
2024-03-11T00:03:13.892Z,85.14
2024-03-11T00:05:37.174Z,84.47
2024-03-11T00:08:00.541Z,84.68
2024-03-11T00:10:24.655Z,84.69
2024-03-11T00:12:52.936Z,84.42
2024-03-11T00:15:16.957Z,84.32
2024-03-11T00:17:39.879Z,84.02
2024-03-11T00:20:03.818Z,84.21
2024-03-11T00:22:27.191Z,83.95
2024-03-11T00:24:50.006Z,83.47
2024-03-11T00:27:12.932Z,83.27
2024-03-11T00:29:36.429Z,83.62
2024-03-11T00:31:59.079Z,84.21
2024-03-11T00:34:21.851Z,84.17
2024-03-11T00:36:49.304Z,84.35
2024-03-11T00:39:12.374Z,83.75
2024-03-11T00:41:35.327Z,83.87
2024-03-11T00:43:57.980Z,84.23
2024-03-11T00:46:20.748Z,83.88
2024-03-11T00:48:44.707Z,83.41
2024-03-11T00:51:07.331Z,83.19
2024-03-11T00:53:30.037Z,82.78
2024-03-11T00:55:53.505Z,82.34
2024-03-11T00:58:16.239Z,82.09
2024-03-11T01:00:39.170Z,82.35
2024-03-11T01:03:02.980Z,82.54
2024-03-11T01:05:25.969Z,82.53
2024-03-11T01:07:48.725Z,82.62
2024-03-11T01:10:11.364Z,82.21
2024-03-11T01:12:34.111Z,82.92
2024-03-11T01:14:57.014Z,83.34
2024-03-11T01:17:20.011Z,83.60
2024-03-11T01:19:42.891Z,84.26
2024-03-11T01:22:05.685Z,84.52
2024-03-11T01:24:29.792Z,85.41
2024-03-11T01:26:53.131Z,85.78
2024-03-11T01:29:16.669Z,86.17
2024-03-11T01:31:39.426Z,85.92
2024-03-11T01:34:02.204Z,86.14
2024-03-11T01:36:26.063Z,86.51
2024-03-11T01:38:49.326Z,86.78
2024-03-11T01:41:13.034Z,86.69
2024-03-11T01:43:37.147Z,86.74
2024-03-11T01:46:00.576Z,86.65
2024-03-11T01:48:26.963Z,85.89
2024-03-11T01:50:50.101Z,86.28
2024-03-11T01:53:13.206Z,86.43
2024-03-11T01:55:38.499Z,85.79
2024-03-11T01:58:04.369Z,85.97
2024-03-11T02:00:27.966Z,85.75
2024-03-11T02:02:55.879Z,86.03
2024-03-11T02:05:21.066Z,85.53
2024-03-11T02:07:52.220Z,85.57
2024-03-11T02:10:15.246Z,85.46
2024-03-11T02:12:38.239Z,85.51
2024-03-11T02:15:01.182Z,85.20
2024-03-11T02:17:24.389Z,85.24
2024-03-11T02:19:49.331Z,85.18
2024-03-11T02:22:13.239Z,84.94
2024-03-11T02:24:40.047Z,84.68
2024-03-11T02:27:03.476Z,84.48
2024-03-11T02:29:26.577Z,84.19
2024-03-11T02:31:49.473Z,84.28
2024-03-11T02:34:13.073Z,84.24
2024-03-11T02:36:36.443Z,83.56
2024-03-11T02:38:59.146Z,83.61
2024-03-11T02:41:21.859Z,84.05
2024-03-11T02:43:44.580Z,84.51
2024-03-11T02:46:07.465Z,83.89
2024-03-11T02:48:31.388Z,84.32
2024-03-11T02:50:54.428Z,84.63
2024-03-11T02:53:17.423Z,84.45
2024-03-11T02:55:40.609Z,84.11
2024-03-11T02:58:03.678Z,84.75
2024-03-11T03:00:26.612Z,84.44
2024-03-11T03:02:51.826Z,84.24
2024-03-11T03:05:14.994Z,83.99
2024-03-11T03:07:37.760Z,83.78
2024-03-11T03:10:00.553Z,83.70
2024-03-11T03:12:23.991Z,84.38
2024-03-11T03:14:46.971Z,84.00
2024-03-11T03:17:09.846Z,84.29
2024-03-11T03:19:32.972Z,84.30
2024-03-11T03:21:55.580Z,84.16
2024-03-11T03:24:19.058Z,84.21
2024-03-11T03:26:42.487Z,84.22
2024-03-11T03:29:05.407Z,84.56
2024-03-11T03:31:28.465Z,84.47
2024-03-11T03:33:51.943Z,84.95
2024-03-11T03:36:14.829Z,84.72
2024-03-11T03:38:40.645Z,84.52
2024-03-11T03:41:05.696Z,84.67
2024-03-11T03:43:28.313Z,83.96
2024-03-11T03:45:51.094Z,84.23
2024-03-11T03:48:14.498Z,84.24
2024-03-11T03:50:38.755Z,83.80
2024-03-11T03:53:02.093Z,83.78
2024-03-11T03:55:25.346Z,84.16
2024-03-11T03:57:48.037Z,84.51
2024-03-11T04:00:22.121Z,84.29
2024-03-11T04:02:50.307Z,84.28
2024-03-11T04:05:13.146Z,84.24
2024-03-11T04:07:36.145Z,84.27
2024-03-11T04:09:58.816Z,84.35
2024-03-11T04:12:21.717Z,84.34
2024-03-11T04:14:44.610Z,84.10
2024-03-11T04:17:07.760Z,84.42
2024-03-11T04:19:31.457Z,84.42
2024-03-11T04:21:57.610Z,84.35
2024-03-11T04:24:23.325Z,84.38
2024-03-11T04:26:46.166Z,84.42
2024-03-11T04:29:09.098Z,84.67
2024-03-11T04:31:34.247Z,84.62
2024-03-11T04:33:57.283Z,84.65
2024-03-11T04:36:20.142Z,84.66
2024-03-11T04:38:43.129Z,84.48
2024-03-11T04:41:05.826Z,84.82
2024-03-11T04:43:29.034Z,84.55
2024-03-11T04:45:53.152Z,85.11
2024-03-11T04:48:18.575Z,85.23
2024-03-11T04:50:43.988Z,85.48
2024-03-11T04:53:08.360Z,85.22
2024-03-11T04:55:32.157Z,85.04
2024-03-11T04:57:55.655Z,84.86
2024-03-11T05:00:19.536Z,85.54
2024-03-11T05:02:43.014Z,85.20
2024-03-11T05:05:10.917Z,85.23
2024-03-11T05:07:33.637Z,85.80
2024-03-11T05:09:57.436Z,85.77
2024-03-11T05:12:20.381Z,85.93
2024-03-11T05:14:43.377Z,86.28
2024-03-11T05:17:06.436Z,86.26
2024-03-11T05:19:30.676Z,86.48
2024-03-11T05:21:53.412Z,86.28
2024-03-11T05:24:16.924Z,86.40
2024-03-11T05:26:39.928Z,86.49
2024-03-11T05:29:03.055Z,86.40
2024-03-11T05:31:27.345Z,86.41
2024-03-11T05:33:49.998Z,86.31
2024-03-11T05:36:15.874Z,86.24
2024-03-11T05:38:38.839Z,85.98
2024-03-11T05:41:03.095Z,86.05
2024-03-11T05:43:25.775Z,85.71
2024-03-11T05:45:48.803Z,85.78
2024-03-11T05:48:12.963Z,85.49
2024-03-11T05:50:38.830Z,85.65
2024-03-11T05:53:01.656Z,84.98
2024-03-11T05:55:27.548Z,85.22
2024-03-11T05:57:50.288Z,84.73
2024-03-11T06:00:18.133Z,84.40
2024-03-11T06:02:42.128Z,83.75
2024-03-11T06:05:08.484Z,83.60
2024-03-11T06:07:31.288Z,83.72
2024-03-11T06:09:54.036Z,83.95
2024-03-11T06:12:17.018Z,83.83
2024-03-11T06:14:40.011Z,83.98
2024-03-11T06:17:06.534Z,83.45
2024-03-11T06:19:29.360Z,83.06
2024-03-11T06:21:55.034Z,83.43
2024-03-11T06:24:21.022Z,82.72
2024-03-11T06:26:46.588Z,82.74
2024-03-11T06:29:09.397Z,82.71
2024-03-11T06:31:33.742Z,82.61
2024-03-11T06:33:59.749Z,82.75
2024-03-11T06:36:23.765Z,82.68
2024-03-11T06:38:50.600Z,82.46
2024-03-11T06:41:15.051Z,82.39
2024-03-11T06:43:39.616Z,82.77
2024-03-11T06:46:02.596Z,82.22
2024-03-11T06:48:26.597Z,82.57
2024-03-11T06:50:50.575Z,82.34
2024-03-11T06:53:13.354Z,82.51
2024-03-11T06:55:36.392Z,82.93
2024-03-11T06:57:59.482Z,82.89
2024-03-11T07:00:22.665Z,82.88
2024-03-11T07:02:48.142Z,82.79
2024-03-11T07:05:11.313Z,83.22
2024-03-11T07:07:34.611Z,82.88
2024-03-11T07:09:57.557Z,82.84
2024-03-11T07:12:21.693Z,82.98
2024-03-11T07:14:45.291Z,82.97
2024-03-11T07:17:11.869Z,83.35
2024-03-11T07:19:40.147Z,83.27
2024-03-11T07:22:03.085Z,83.34
2024-03-11T07:24:26.302Z,83.18
2024-03-11T07:26:52.360Z,83.07
2024-03-11T07:29:17.310Z,83.31
2024-03-11T07:31:40.148Z,83.17
2024-03-11T07:34:02.984Z,83.28
2024-03-11T07:36:27.509Z,83.34
2024-03-11T07:38:50.823Z,82.93
2024-03-11T07:41:14.782Z,83.30
2024-03-11T07:43:37.964Z,82.86
2024-03-11T07:46:03.668Z,83.01
2024-03-11T07:48:26.761Z,82.78
2024-03-11T07:50:51.292Z,82.85
2024-03-11T07:53:15.258Z,82.62
2024-03-11T07:55:39.297Z,82.70
2024-03-11T07:58:03.145Z,82.69
2024-03-11T08:00:31.260Z,82.70
2024-03-11T08:02:57.585Z,82.16
2024-03-11T08:05:23.970Z,82.28
2024-03-11T08:07:48.373Z,82.07
2024-03-11T08:10:12.573Z,82.03
2024-03-11T08:12:35.497Z,81.75
2024-03-11T08:14:59.145Z,81.05
2024-03-11T08:17:23.154Z,81.42
2024-03-11T08:19:46.278Z,80.86
2024-03-11T08:22:10.935Z,80.36
2024-03-11T08:24:33.641Z,80.08
2024-03-11T08:26:57.693Z,79.88
2024-03-11T08:29:20.515Z,80.35
2024-03-11T08:31:43.118Z,81.07
2024-03-11T08:34:09.009Z,80.98
2024-03-11T08:36:34.087Z,81.13
2024-03-11T08:38:56.826Z,81.07
2024-03-11T08:41:22.440Z,80.86
2024-03-11T08:43:45.645Z,80.96
2024-03-11T08:46:13.021Z,80.88
2024-03-11T08:48:38.111Z,80.43
2024-03-11T08:51:00.980Z,80.55
2024-03-11T08:53:24.501Z,80.14
2024-03-11T08:55:50.299Z,80.19
2024-03-11T08:58:13.686Z,80.39
2024-03-11T09:00:38.774Z,80.47
2024-03-11T09:03:01.814Z,81.23
2024-03-11T09:05:25.081Z,80.57
2024-03-11T09:07:48.784Z,80.31
2024-03-11T09:10:11.714Z,80.22
2024-03-11T09:12:35.421Z,80.66
2024-03-11T09:14:59.216Z,80.07
2024-03-11T09:17:22.216Z,80.98
2024-03-11T09:19:45.481Z,80.92
2024-03-11T09:22:08.287Z,82.07
2024-03-11T09:24:32.329Z,81.81
2024-03-11T09:26:55.300Z,82.49
2024-03-11T09:29:22.848Z,82.10
2024-03-11T09:31:48.579Z,82.24
2024-03-11T09:34:11.426Z,82.49
2024-03-11T09:36:36.020Z,82.18
2024-03-11T09:38:58.951Z,81.89
2024-03-11T09:41:22.184Z,81.91
2024-03-11T09:43:50.115Z,81.80
2024-03-11T09:46:15.676Z,81.92
2024-03-11T09:48:39.860Z,81.39
2024-03-11T09:51:04.192Z,80.54
2024-03-11T09:53:28.396Z,79.64
2024-03-11T09:55:56.014Z,79.70
2024-03-11T09:58:20.818Z,79.04
2024-03-11T10:00:57.130Z,79.61
2024-03-11T10:03:29.305Z,80.11
2024-03-11T10:06:00.872Z,80.44
2024-03-11T10:08:26.413Z,80.72
2024-03-11T10:11:15.364Z,80.23
2024-03-11T10:13:38.508Z,80.98
2024-03-11T10:16:19.298Z,80.83
2024-03-11T10:19:24.707Z,80.01
2024-03-11T10:22:27.243Z,79.51
2024-03-11T10:24:58.524Z,78.87
2024-03-11T10:27:23.670Z,77.70
2024-03-11T10:29:46.697Z,77.59
2024-03-11T10:32:09.722Z,77.52
2024-03-11T10:34:32.590Z,78.60
2024-03-11T10:37:03.432Z,77.76
2024-03-11T10:39:42.471Z,78.05
2024-03-11T10:42:10.948Z,79.50
2024-03-11T10:44:41.714Z,78.87
2024-03-11T10:47:23.127Z,79.52
2024-03-11T10:49:51.318Z,79.86
2024-03-11T10:52:24.727Z,80.11
2024-03-11T10:55:06.757Z,81.09
2024-03-11T10:57:40.958Z,81.58
2024-03-11T11:00:26.165Z,81.08
2024-03-11T11:02:54.983Z,82.22
2024-03-11T11:05:20.129Z,81.61
2024-03-11T11:07:44.311Z,81.64
2024-03-11T11:10:08.532Z,81.19
2024-03-11T11:12:37.508Z,81.20
2024-03-11T11:15:13.952Z,80.62
2024-03-11T11:17:38.733Z,80.64
2024-03-11T11:20:18.420Z,81.14
2024-03-11T11:22:41.807Z,81.90
2024-03-11T11:25:05.259Z,81.61
2024-03-11T11:27:29.703Z,81.71
2024-03-11T11:29:53.920Z,82.52
2024-03-11T11:32:20.086Z,82.01
2024-03-11T11:34:46.291Z,82.33
2024-03-11T11:37:31.825Z,83.15
2024-03-11T11:39:58.066Z,82.64
2024-03-11T11:42:41.093Z,82.35
2024-03-11T11:45:07.854Z,82.27
2024-03-11T11:47:31.234Z,82.23
2024-03-11T11:49:56.407Z,82.99
2024-03-11T11:52:20.308Z,83.80
2024-03-11T11:54:44.381Z,83.92
2024-03-11T11:57:11.964Z,84.33
2024-03-11T11:59:38.558Z,84.29
2024-03-11T12:02:01.800Z,83.61
2024-03-11T12:04:24.781Z,83.68
2024-03-11T12:06:51.349Z,83.62
2024-03-11T12:09:15.036Z,83.12
2024-03-11T12:11:42.339Z,82.29
2024-03-11T12:14:07.415Z,81.46
2024-03-11T12:16:31.576Z,81.48
2024-03-11T12:19:10.728Z,80.66
2024-03-11T12:21:35.433Z,80.45
2024-03-11T12:23:59.402Z,79.90
2024-03-11T12:26:28.996Z,79.82
2024-03-11T12:29:24.309Z,80.13
2024-03-11T12:31:55.370Z,79.66
2024-03-11T12:34:19.217Z,79.56
2024-03-11T12:36:48.189Z,78.58
2024-03-11T12:39:27.613Z,78.42
2024-03-11T12:41:51.527Z,78.90
2024-03-11T12:44:18.363Z,78.19
2024-03-11T12:46:43.697Z,77.51
2024-03-11T12:49:08.907Z,77.71
2024-03-11T12:51:32.678Z,77.93
2024-03-11T12:54:24.054Z,77.90
2024-03-11T12:57:06.668Z,77.90
2024-03-11T12:59:33.909Z,78.43
2024-03-11T13:02:20.501Z,77.73
2024-03-11T13:04:45.640Z,78.39
2024-03-11T13:07:10.792Z,76.62
2024-03-11T13:09:34.876Z,76.64
2024-03-11T13:12:01.091Z,76.84
2024-03-11T13:14:24.222Z,76.63
2024-03-11T13:16:49.673Z,77.60
2024-03-11T13:19:14.137Z,76.93
2024-03-11T13:21:37.128Z,77.98
2024-03-11T13:24:00.808Z,78.43
2024-03-11T13:26:24.962Z,78.85
2024-03-11T13:28:49.195Z,79.50
2024-03-11T13:31:14.237Z,79.67
2024-03-11T13:33:42.567Z,79.29
2024-03-11T13:36:11.075Z,79.39
2024-03-11T13:38:34.947Z,78.80
2024-03-11T13:40:57.968Z,79.02
2024-03-11T13:43:24.708Z,79.57
2024-03-11T13:45:52.242Z,78.92
2024-03-11T13:48:15.694Z,79.07
2024-03-11T13:50:40.296Z,78.79
2024-03-11T13:53:04.924Z,78.16
2024-03-11T13:55:30.240Z,78.01
2024-03-11T13:57:53.291Z,77.81
2024-03-11T14:00:19.627Z,77.51
2024-03-11T14:02:42.479Z,77.22
2024-03-11T14:05:05.434Z,77.10
2024-03-11T14:07:28.236Z,77.17
2024-03-11T14:09:51.219Z,77.44
2024-03-11T14:12:15.321Z,76.77
2024-03-11T14:14:41.597Z,76.32
2024-03-11T14:17:04.468Z,77.14
2024-03-11T14:19:28.748Z,77.23
2024-03-11T14:21:52.828Z,76.57
2024-03-11T14:24:17.063Z,76.46
2024-03-11T14:26:41.371Z,76.09
2024-03-11T14:29:07.135Z,76.32
2024-03-11T14:31:29.838Z,75.60
2024-03-11T14:33:56.500Z,75.61
2024-03-11T14:36:23.179Z,74.99
2024-03-11T14:38:50.684Z,74.84
2024-03-11T14:41:14.079Z,74.67
2024-03-11T14:43:36.988Z,74.20
2024-03-11T14:46:00.350Z,73.81
2024-03-11T14:48:24.377Z,74.38
2024-03-11T14:50:50.177Z,74.16
2024-03-11T14:53:16.552Z,74.66
2024-03-11T14:55:42.757Z,74.98
2024-03-11T14:58:09.279Z,74.75
2024-03-11T15:00:37.137Z,75.15
2024-03-11T15:03:02.192Z,75.52
2024-03-11T15:05:26.114Z,75.59
2024-03-11T15:07:50.789Z,75.96
2024-03-11T15:10:13.557Z,75.73
2024-03-11T15:12:36.452Z,75.63
2024-03-11T15:15:00.817Z,75.57
2024-03-11T15:17:24.628Z,75.59
2024-03-11T15:19:47.389Z,75.52
2024-03-11T15:22:09.991Z,75.35
2024-03-11T15:24:35.198Z,75.98
2024-03-11T15:26:58.073Z,76.06
2024-03-11T15:29:20.786Z,75.90
2024-03-11T15:31:44.925Z,76.20
2024-03-11T15:34:07.938Z,76.19
2024-03-11T15:36:33.924Z,76.53
2024-03-11T15:38:56.964Z,76.35
2024-03-11T15:41:20.761Z,76.93
2024-03-11T15:43:43.417Z,76.65
2024-03-11T15:46:06.348Z,76.87
2024-03-11T15:48:30.603Z,77.16
2024-03-11T15:50:54.956Z,77.13
2024-03-11T15:53:19.380Z,77.49
2024-03-11T15:55:42.801Z,77.70
2024-03-11T15:58:05.917Z,77.87
2024-03-11T16:00:33.752Z,78.30
2024-03-11T16:03:00.412Z,78.59
2024-03-11T16:05:24.643Z,78.70
2024-03-11T16:07:48.809Z,79.64
2024-03-11T16:10:17.678Z,79.47
2024-03-11T16:12:45.103Z,79.83
2024-03-11T16:15:13.560Z,79.75
2024-03-11T16:17:38.274Z,79.15
2024-03-11T16:20:01.018Z,79.95
2024-03-11T16:22:24.376Z,77.98
2024-03-11T16:24:47.160Z,77.35
2024-03-11T16:27:09.832Z,77.81
2024-03-11T16:29:33.683Z,77.70
2024-03-11T16:31:57.245Z,77.75
2024-03-11T16:34:20.108Z,77.48
2024-03-11T16:36:43.792Z,76.57
2024-03-11T16:39:09.385Z,77.07
2024-03-11T16:41:32.319Z,76.93
2024-03-11T16:43:56.395Z,77.06
2024-03-11T16:46:20.249Z,76.37
2024-03-11T16:48:46.644Z,76.25
2024-03-11T16:51:09.550Z,76.15
2024-03-11T16:53:32.737Z,76.02
2024-03-11T16:55:57.393Z,76.60
2024-03-11T16:58:20.178Z,76.57
2024-03-11T17:00:44.035Z,77.11
2024-03-11T17:03:07.369Z,77.39
2024-03-11T17:05:31.910Z,77.41
2024-03-11T17:07:56.305Z,77.67
2024-03-11T17:10:21.319Z,78.20
2024-03-11T17:12:45.555Z,78.15
2024-03-11T17:15:11.450Z,78.86
2024-03-11T17:17:37.347Z,78.59
2024-03-11T17:20:00.537Z,78.87
2024-03-11T17:22:23.337Z,78.94
2024-03-11T17:24:47.257Z,79.47
2024-03-11T17:27:10.073Z,79.79
2024-03-11T17:29:33.563Z,80.31
2024-03-11T17:31:56.337Z,80.84
2024-03-11T17:34:20.545Z,81.41
2024-03-11T17:36:43.593Z,82.13
2024-03-11T17:39:08.143Z,82.84
2024-03-11T17:41:30.976Z,83.29
2024-03-11T17:43:55.198Z,83.62
2024-03-11T17:46:18.139Z,83.70
2024-03-11T17:48:41.431Z,83.88
2024-03-11T17:51:07.464Z,84.22
2024-03-11T17:53:30.214Z,84.31
2024-03-11T17:55:54.421Z,84.18
2024-03-11T17:58:17.441Z,83.65
2024-03-11T18:00:43.468Z,83.71
2024-03-11T18:03:09.771Z,83.45
2024-03-11T18:05:33.347Z,83.42
2024-03-11T18:08:01.168Z,83.07
2024-03-11T18:10:24.152Z,83.20
2024-03-11T18:12:51.066Z,83.16
2024-03-11T18:15:17.312Z,83.23
2024-03-11T18:17:40.098Z,83.15
2024-03-11T18:20:11.956Z,83.15
2024-03-11T18:22:44.134Z,83.09
2024-03-11T18:25:14.791Z,83.36
2024-03-11T18:27:38.502Z,83.41
2024-03-11T18:30:01.255Z,83.32
2024-03-11T18:32:25.732Z,83.35
2024-03-11T18:34:48.627Z,83.56
2024-03-11T18:37:11.989Z,83.38
2024-03-11T18:39:36.451Z,83.03
2024-03-11T18:41:59.839Z,83.00
2024-03-11T18:44:22.708Z,82.97
2024-03-11T18:46:45.388Z,82.73
2024-03-11T18:49:09.335Z,82.28
2024-03-11T18:51:32.717Z,82.08
2024-03-11T18:53:55.459Z,81.88
2024-03-11T18:56:18.380Z,81.98
2024-03-11T18:58:43.809Z,81.64
2024-03-11T19:01:06.662Z,81.95
2024-03-11T19:03:29.882Z,81.79
2024-03-11T19:05:52.757Z,81.76
2024-03-11T19:08:17.010Z,82.14
2024-03-11T19:10:39.757Z,82.02
2024-03-11T19:13:05.794Z,81.98
2024-03-11T19:15:29.708Z,81.65
2024-03-11T19:17:53.794Z,81.19
2024-03-11T19:20:23.897Z,81.13
2024-03-11T19:22:48.523Z,81.48
2024-03-11T19:25:13.408Z,81.23
2024-03-11T19:27:37.878Z,80.93
2024-03-11T19:30:00.833Z,80.57
2024-03-11T19:32:24.069Z,80.36
2024-03-11T19:34:47.147Z,80.45
2024-03-11T19:37:36.012Z,80.18
2024-03-11T19:40:13.561Z,79.11
2024-03-11T19:42:56.205Z,79.26
2024-03-11T19:45:46.487Z,78.24
2024-03-11T19:48:28.498Z,77.24
2024-03-11T19:51:31.771Z,76.86
2024-03-11T19:54:31.190Z,76.62
2024-03-11T19:57:33.420Z,75.73
2024-03-11T20:00:29.781Z,75.19
2024-03-11T20:03:19.404Z,74.53
2024-03-11T20:05:51.580Z,74.00
2024-03-11T20:09:02.723Z,74.13
2024-03-11T20:11:59.748Z,75.11
2024-03-11T20:14:28.938Z,74.69
2024-03-11T20:17:00.777Z,74.09
2024-03-11T20:20:05.433Z,74.41
2024-03-11T20:22:44.062Z,74.44
2024-03-11T20:25:25.561Z,74.62
2024-03-11T20:27:58.872Z,73.83
2024-03-11T20:30:23.830Z,74.48
2024-03-11T20:33:03.586Z,74.57
2024-03-11T20:35:26.882Z,73.86
2024-03-11T20:37:51.038Z,74.10
2024-03-11T20:40:14.384Z,74.06
2024-03-11T20:42:38.148Z,74.30
2024-03-11T20:45:02.625Z,73.99
2024-03-11T20:47:26.845Z,74.06
2024-03-11T20:49:49.772Z,74.44
2024-03-11T20:52:12.799Z,75.00
2024-03-11T20:54:37.214Z,74.90
2024-03-11T20:57:00.976Z,74.42
2024-03-11T20:59:23.931Z,74.72
2024-03-11T21:01:46.768Z,74.76
2024-03-11T21:04:09.529Z,75.01
2024-03-11T21:06:33.502Z,74.79
2024-03-11T21:08:56.222Z,75.18
2024-03-11T21:11:18.973Z,74.76
2024-03-11T21:13:42.932Z,75.43
2024-03-11T21:16:14.294Z,74.57
2024-03-11T21:18:37.389Z,74.99
2024-03-11T21:21:19.120Z,75.14
2024-03-11T21:23:42.114Z,75.88
2024-03-11T21:26:23.724Z,75.55
2024-03-11T21:28:46.849Z,75.59
2024-03-11T21:31:09.619Z,75.37
2024-03-11T21:33:33.051Z,75.50
2024-03-11T21:35:56.098Z,75.24
2024-03-11T21:38:27.350Z,75.74
2024-03-11T21:40:52.671Z,75.81
2024-03-11T21:43:15.626Z,75.32
2024-03-11T21:45:38.538Z,75.91
2024-03-11T21:48:01.245Z,75.92
2024-03-11T21:50:24.196Z,75.59
2024-03-11T21:52:46.861Z,76.22
2024-03-11T21:55:09.926Z,76.46
2024-03-11T21:57:32.640Z,76.70
2024-03-11T21:59:55.939Z,76.26
2024-03-11T22:02:19.574Z,76.80
2024-03-11T22:04:42.434Z,76.86
2024-03-11T22:07:05.227Z,76.96
2024-03-11T22:09:27.991Z,76.93
2024-03-11T22:11:51.129Z,77.70
2024-03-11T22:14:14.035Z,77.99
2024-03-11T22:16:40.327Z,78.47
2024-03-11T22:19:03.192Z,79.19
2024-03-11T22:21:26.072Z,79.39
2024-03-11T22:23:50.051Z,79.43
2024-03-11T22:26:12.744Z,79.61
2024-03-11T22:28:36.193Z,79.74
2024-03-11T22:30:58.958Z,80.88
2024-03-11T22:33:21.857Z,81.24
2024-03-11T22:35:45.375Z,81.05
2024-03-11T22:38:08.586Z,81.30
2024-03-11T22:40:33.893Z,80.78
2024-03-11T22:42:56.565Z,81.56
2024-03-11T22:45:20.596Z,81.79
2024-03-11T22:47:45.070Z,81.82
2024-03-11T22:50:11.382Z,81.63
2024-03-11T22:52:34.382Z,81.98
2024-03-11T22:54:57.193Z,82.19
2024-03-11T22:57:19.875Z,82.21
2024-03-11T22:59:42.841Z,81.64
2024-03-11T23:02:09.344Z,81.82
2024-03-11T23:04:32.488Z,81.14
2024-03-11T23:06:55.314Z,81.28
2024-03-11T23:09:18.195Z,80.95
2024-03-11T23:11:40.905Z,81.05
2024-03-11T23:14:05.371Z,81.31
2024-03-11T23:16:28.211Z,81.09
2024-03-11T23:18:51.602Z,81.49
2024-03-11T23:21:17.178Z,81.71
2024-03-11T23:23:41.445Z,81.89
2024-03-11T23:26:08.871Z,81.97
2024-03-11T23:28:31.775Z,82.09
2024-03-11T23:30:55.731Z,82.18
2024-03-11T23:33:18.944Z,82.77
2024-03-11T23:35:42.707Z,83.08
2024-03-11T23:38:07.739Z,83.05
2024-03-11T23:40:30.478Z,83.12
2024-03-11T23:42:53.561Z,82.97
2024-03-11T23:45:21.004Z,83.04
2024-03-11T23:47:50.650Z,82.67
2024-03-11T23:50:13.859Z,82.77
2024-03-11T23:52:38.701Z,82.59
2024-03-11T23:55:01.623Z,82.90
2024-03-11T23:57:24.543Z,82.36
2024-03-11T23:59:50.770Z,82.20
